createdAt,value
2023-02-17T00:02:34.424Z,-2.60
2023-02-17T00:05:40.321Z,-2.50
2023-02-17T00:08:42.925Z,-2.60
2023-02-17T00:11:45.020Z,-2.60
2023-02-17T00:14:47.239Z,-2.60
2023-02-17T00:17:49.365Z,-2.70
2023-02-17T00:20:51.776Z,-2.70
2023-02-17T00:23:54.158Z,-2.80
2023-02-17T00:26:56.410Z,-2.90
2023-02-17T00:29:59.068Z,-2.90
2023-02-17T00:33:01.556Z,-2.80
2023-02-17T00:36:08.972Z,-2.90
2023-02-17T00:39:14.116Z,-2.90
2023-02-17T00:42:16.307Z,-2.90
2023-02-17T00:45:18.520Z,-2.80
2023-02-17T00:48:20.845Z,-2.80
2023-02-17T00:51:23.838Z,-2.80
2023-02-17T00:54:25.979Z,-2.80
2023-02-17T00:57:32.335Z,-2.80
2023-02-17T01:00:35.350Z,-2.80
2023-02-17T01:03:37.764Z,-2.80
2023-02-17T01:06:40.160Z,-2.90
2023-02-17T01:09:42.344Z,-2.90
2023-02-17T01:12:44.614Z,-2.90
2023-02-17T01:15:49.770Z,-2.90
2023-02-17T01:18:52.383Z,-2.90
2023-02-17T01:21:54.558Z,-3.00
2023-02-17T01:24:56.718Z,-3.00
2023-02-17T01:27:59.024Z,-3.00
2023-02-17T01:31:09.610Z,-3.00
2023-02-17T01:34:11.971Z,-3.00
2023-02-17T01:37:14.114Z,-3.00
2023-02-17T01:40:20.328Z,-3.10
2023-02-17T01:43:22.540Z,-3.10
2023-02-17T01:46:27.165Z,-3.10
2023-02-17T01:49:38.522Z,-3.10
2023-02-17T01:52:41.718Z,-3.10
2023-02-17T01:55:44.657Z,-3.10
2023-02-17T01:58:52.933Z,-3.10
2023-02-17T02:01:59.637Z,-3.20
2023-02-17T02:05:02.312Z,-3.20
2023-02-17T02:08:05.849Z,-3.20
2023-02-17T02:11:08.065Z,-3.20
2023-02-17T02:14:11.443Z,-3.20
2023-02-17T02:17:31.253Z,-3.20
2023-02-17T02:21:03.536Z,-3.10
2023-02-17T02:24:23.744Z,-3.10
2023-02-17T02:27:38.104Z,-3.20
2023-02-17T02:31:16.287Z,-3.20
2023-02-17T02:34:25.833Z,-3.20
2023-02-17T02:37:35.713Z,-3.20
2023-02-17T02:40:50.260Z,-3.20
2023-02-17T02:43:52.563Z,-3.20
2023-02-17T02:47:03.600Z,-3.20
2023-02-17T02:50:06.584Z,-3.30
2023-02-17T02:53:42.145Z,-3.30
2023-02-17T02:56:59.338Z,-3.40
2023-02-17T03:00:26.454Z,-3.40
2023-02-17T03:03:32.317Z,-3.40
2023-02-17T03:06:43.734Z,-3.40
2023-02-17T03:09:45.922Z,-3.40
2023-02-17T03:12:48.631Z,-3.50
2023-02-17T03:15:50.959Z,-3.50
2023-02-17T03:18:53.150Z,-3.50
2023-02-17T03:22:24.304Z,-3.50
2023-02-17T03:25:26.560Z,-3.60
2023-02-17T03:28:28.704Z,-3.60
2023-02-17T03:31:31.284Z,-3.60
2023-02-17T03:34:34.140Z,-3.60
2023-02-17T03:37:36.395Z,-3.60
2023-02-17T03:40:38.705Z,-3.50
2023-02-17T03:43:40.822Z,-3.50
2023-02-17T03:46:42.977Z,-3.50
2023-02-17T03:49:45.177Z,-3.50
2023-02-17T03:52:47.637Z,-3.50
2023-02-17T03:55:49.801Z,-3.50
2023-02-17T03:58:51.967Z,-3.50
2023-02-17T04:01:54.059Z,-3.50
2023-02-17T04:04:56.232Z,-3.50
2023-02-17T04:07:58.296Z,-3.60
2023-02-17T04:11:02.440Z,-3.60
2023-02-17T04:14:04.723Z,-3.60
2023-02-17T04:17:06.899Z,-3.50
2023-02-17T04:20:10.023Z,-3.60
2023-02-17T04:23:14.544Z,-3.60
2023-02-17T04:26:16.673Z,-3.50
2023-02-17T04:29:19.007Z,-3.60
2023-02-17T04:32:21.148Z,-3.60
2023-02-17T04:35:24.324Z,-3.60
2023-02-17T04:38:29.242Z,-3.60
2023-02-17T04:41:31.363Z,-3.60
2023-02-17T04:44:33.505Z,-3.60
2023-02-17T04:47:35.856Z,-3.50
2023-02-17T04:50:38.025Z,-3.50
2023-02-17T04:53:40.144Z,-3.40
2023-02-17T04:56:42.299Z,-3.30
2023-02-17T04:59:44.878Z,-3.30
2023-02-17T05:02:47.000Z,-3.30
2023-02-17T05:05:50.009Z,-3.20
2023-02-17T05:08:54.121Z,-3.10
2023-02-17T05:11:56.245Z,-3.00
2023-02-17T05:14:58.302Z,-3.00
2023-02-17T05:18:00.425Z,-2.90
2023-02-17T05:21:02.520Z,-2.70
2023-02-17T05:24:05.208Z,-2.70
2023-02-17T05:27:07.480Z,-2.50
2023-02-17T05:30:10.746Z,-2.40
2023-02-17T05:33:13.130Z,-2.40
2023-02-17T05:36:15.321Z,-2.30
2023-02-17T05:39:17.440Z,-2.30
2023-02-17T05:42:19.796Z,-2.20
2023-02-17T05:45:21.969Z,-2.10
2023-02-17T05:48:24.158Z,-2.10
2023-02-17T05:51:26.480Z,-2.00
2023-02-17T05:54:28.636Z,-2.00
2023-02-17T05:57:31.576Z,-1.90
2023-02-17T06:00:34.904Z,-1.90
2023-02-17T06:03:37.765Z,-1.90
2023-02-17T06:06:39.887Z,-1.80
2023-02-17T06:09:42.035Z,-1.80
2023-02-17T06:12:44.264Z,-1.70
2023-02-17T06:15:47.026Z,-1.60
2023-02-17T06:18:49.170Z,-1.60
2023-02-17T06:21:51.452Z,-1.60
2023-02-17T06:24:53.581Z,-1.50
2023-02-17T06:27:55.767Z,-1.40
2023-02-17T06:30:58.333Z,-1.40
2023-02-17T06:34:00.475Z,-1.30
2023-02-17T06:37:02.681Z,-1.20
2023-02-17T06:40:05.464Z,-1.10
2023-02-17T06:43:10.604Z,-1.00
2023-02-17T06:46:13.010Z,-0.90
2023-02-17T06:49:15.252Z,-0.80
2023-02-17T06:52:17.428Z,-0.70
2023-02-17T06:55:19.653Z,-0.60
2023-02-17T06:58:21.890Z,-0.40
2023-02-17T07:01:28.767Z,-0.30
2023-02-17T07:04:31.346Z,-0.10
2023-02-17T07:07:33.514Z,0.00
2023-02-17T07:10:37.628Z,0.00
2023-02-17T07:13:41.164Z,0.10
2023-02-17T07:16:43.670Z,0.20
2023-02-17T07:19:45.743Z,0.30
2023-02-17T07:22:48.190Z,0.40
2023-02-17T07:25:50.647Z,0.40
2023-02-17T07:28:52.804Z,0.50
2023-02-17T07:31:55.049Z,0.60
2023-02-17T07:34:57.179Z,0.80
2023-02-17T07:37:59.526Z,1.00
2023-02-17T07:41:22.148Z,1.10
2023-02-17T07:44:24.479Z,1.20
2023-02-17T07:47:26.594Z,1.50
2023-02-17T07:50:28.896Z,1.70
2023-02-17T07:53:31.100Z,2.00
2023-02-17T07:56:34.035Z,2.40
2023-02-17T07:59:36.182Z,2.80
2023-02-17T08:02:38.524Z,3.20
2023-02-17T08:05:41.873Z,3.60
2023-02-17T08:09:02.867Z,3.90
2023-02-17T08:12:23.760Z,4.20
2023-02-17T08:15:25.962Z,4.50
2023-02-17T08:18:30.622Z,5.10
2023-02-17T08:21:35.214Z,5.40
2023-02-17T08:24:37.305Z,5.60
2023-02-17T08:27:39.347Z,5.70
2023-02-17T08:30:42.515Z,5.70
2023-02-17T08:33:44.846Z,5.80
2023-02-17T08:36:47.118Z,6.10
2023-02-17T08:39:49.367Z,6.40
2023-02-17T08:42:51.597Z,6.90
2023-02-17T08:45:53.883Z,7.50
2023-02-17T08:48:57.268Z,7.90
2023-02-17T08:51:59.906Z,8.10
2023-02-17T08:55:02.183Z,8.20
2023-02-17T08:58:04.495Z,8.30
2023-02-17T09:01:06.781Z,8.20
2023-02-17T09:04:13.818Z,8.30
2023-02-17T09:07:16.719Z,8.40
2023-02-17T09:10:19.070Z,8.40
2023-02-17T09:13:21.502Z,8.60
2023-02-17T09:16:24.763Z,8.90
2023-02-17T09:19:27.775Z,9.20
2023-02-17T09:22:32.407Z,9.50
2023-02-17T09:25:35.009Z,9.80
2023-02-17T09:28:38.201Z,10.30
2023-02-17T09:31:41.003Z,10.60
2023-02-17T09:34:55.642Z,11.00
2023-02-17T09:37:57.841Z,11.30
2023-02-17T09:41:41.440Z,11.20
2023-02-17T09:44:46.956Z,11.60
2023-02-17T09:48:11.148Z,11.70
2023-02-17T09:51:27.029Z,11.70
2023-02-17T09:54:59.743Z,11.50
2023-02-17T09:58:04.750Z,11.40
2023-02-17T10:01:12.306Z,11.30
2023-02-17T10:04:18.907Z,11.50
2023-02-17T10:07:46.034Z,11.60
2023-02-17T10:10:54.369Z,11.70
2023-02-17T10:13:59.787Z,11.70
2023-02-17T10:17:26.854Z,11.70
2023-02-17T10:20:35.939Z,11.70
2023-02-17T10:23:38.573Z,11.50
2023-02-17T10:27:02.171Z,11.10
2023-02-17T10:30:23.172Z,11.10
2023-02-17T10:33:38.816Z,11.20
2023-02-17T10:37:04.992Z,11.40
2023-02-17T10:40:14.069Z,11.60
2023-02-17T10:43:24.236Z,11.70
2023-02-17T10:46:30.018Z,11.70
2023-02-17T10:49:42.028Z,11.70
2023-02-17T10:52:44.318Z,11.80
2023-02-17T10:56:02.468Z,11.90
2023-02-17T10:59:30.461Z,11.90
2023-02-17T11:02:47.076Z,12.00
2023-02-17T11:06:00.956Z,12.20
2023-02-17T11:09:07.656Z,12.30
2023-02-17T11:12:17.776Z,12.30
2023-02-17T11:15:28.062Z,12.40
2023-02-17T11:18:34.786Z,12.60
2023-02-17T11:21:44.038Z,12.80
2023-02-17T11:24:59.091Z,13.00
2023-02-17T11:28:04.148Z,13.10
2023-02-17T11:31:07.379Z,13.30
2023-02-17T11:34:22.332Z,13.50
2023-02-17T11:37:27.043Z,13.80
2023-02-17T11:40:32.346Z,14.10
2023-02-17T11:43:36.418Z,14.40
2023-02-17T11:46:49.773Z,14.60
2023-02-17T11:50:40.445Z,14.50
2023-02-17T11:54:13.350Z,15.20
2023-02-17T11:57:44.376Z,15.10
2023-02-17T12:01:05.424Z,15.40
2023-02-17T12:04:26.134Z,15.70
2023-02-17T12:08:01.233Z,15.60
2023-02-17T12:11:19.644Z,15.80
2023-02-17T12:15:24.168Z,15.80
2023-02-17T12:18:26.198Z,15.90
2023-02-17T12:21:46.846Z,16.00
2023-02-17T12:24:51.651Z,15.80
2023-02-17T12:28:14.318Z,15.80
2023-02-17T12:31:55.311Z,16.00
2023-02-17T12:35:03.830Z,16.40
2023-02-17T12:38:15.222Z,16.20
2023-02-17T12:41:26.625Z,15.40
2023-02-17T12:44:33.474Z,15.30
2023-02-17T12:48:10.900Z,15.30
2023-02-17T12:51:28.815Z,15.40
2023-02-17T12:54:41.939Z,15.50
2023-02-17T12:57:58.520Z,15.50
2023-02-17T13:01:07.585Z,15.40
2023-02-17T13:04:18.260Z,15.60
2023-02-17T13:07:44.450Z,16.10
2023-02-17T13:10:46.585Z,16.30
2023-02-17T13:13:48.917Z,16.50
2023-02-17T13:16:51.229Z,16.70
2023-02-17T13:20:11.685Z,17.40
2023-02-17T13:23:26.135Z,17.80
2023-02-17T13:26:32.845Z,17.40
2023-02-17T13:29:36.682Z,17.20
2023-02-17T13:32:39.458Z,16.80
2023-02-17T13:35:41.633Z,16.30
2023-02-17T13:38:59.849Z,16.20
2023-02-17T13:42:41.405Z,16.00
2023-02-17T13:45:45.227Z,17.10
2023-02-17T13:48:59.325Z,17.50
2023-02-17T13:52:09.610Z,17.50
2023-02-17T13:55:19.052Z,17.30
2023-02-17T13:58:22.249Z,16.80
2023-02-17T14:01:27.551Z,16.90
2023-02-17T14:04:31.689Z,16.80
2023-02-17T14:07:35.460Z,16.60
2023-02-17T14:10:38.990Z,16.60
2023-02-17T14:13:45.485Z,16.40
2023-02-17T14:17:07.146Z,15.90
2023-02-17T14:20:29.669Z,15.70
2023-02-17T14:23:46.655Z,15.90
2023-02-17T14:26:49.839Z,16.40
2023-02-17T14:29:51.918Z,16.40
2023-02-17T14:33:25.006Z,16.60
2023-02-17T14:36:38.660Z,16.20
2023-02-17T14:39:40.923Z,16.00
2023-02-17T14:42:44.031Z,15.90
2023-02-17T14:45:46.206Z,15.90
2023-02-17T14:48:50.033Z,15.90
2023-02-17T14:51:52.368Z,15.60
2023-02-17T14:54:54.777Z,15.40
2023-02-17T14:58:00.469Z,15.30
2023-02-17T15:01:03.028Z,15.10
2023-02-17T15:04:05.563Z,15.00
2023-02-17T15:07:14.280Z,15.30
2023-02-17T15:10:25.857Z,15.60
2023-02-17T15:13:28.528Z,15.90
2023-02-17T15:16:31.152Z,15.70
2023-02-17T15:19:33.792Z,15.30
2023-02-17T15:22:41.556Z,15.30
2023-02-17T15:25:45.015Z,15.60
2023-02-17T15:28:47.956Z,15.80
2023-02-17T15:31:52.189Z,15.70
2023-02-17T15:34:55.996Z,15.50
2023-02-17T15:37:58.723Z,15.40
2023-02-17T15:41:01.821Z,15.60
2023-02-17T15:44:06.268Z,15.50
2023-02-17T15:47:17.542Z,15.20
2023-02-17T15:50:23.667Z,15.20
2023-02-17T15:53:26.523Z,15.20
2023-02-17T15:56:32.414Z,15.20
2023-02-17T15:59:36.977Z,15.00
2023-02-17T16:02:39.932Z,14.40
2023-02-17T16:05:43.072Z,14.00
2023-02-17T16:08:45.486Z,13.70
2023-02-17T16:11:52.160Z,13.60
2023-02-17T16:14:56.193Z,13.50
2023-02-17T16:17:59.265Z,13.20
2023-02-17T16:21:02.085Z,12.70
2023-02-17T16:24:07.878Z,12.30
2023-02-17T16:27:15.528Z,11.90
2023-02-17T16:30:41.161Z,11.50
2023-02-17T16:33:44.149Z,11.20
2023-02-17T16:36:47.927Z,10.90
2023-02-17T16:39:50.452Z,10.60
2023-02-17T16:42:54.170Z,10.40
2023-02-17T16:46:00.637Z,10.10
2023-02-17T16:49:11.904Z,9.90
2023-02-17T16:52:28.575Z,9.50
2023-02-17T16:55:33.734Z,9.30
2023-02-17T16:58:36.517Z,9.20
2023-02-17T17:01:39.878Z,9.00
2023-02-17T17:04:42.904Z,8.80
2023-02-17T17:07:47.441Z,8.60
2023-02-17T17:10:50.288Z,8.30
2023-02-17T17:13:53.317Z,8.00
2023-02-17T17:17:01.325Z,7.70
2023-02-17T17:20:05.026Z,7.50
2023-02-17T17:23:11.939Z,7.30
2023-02-17T17:26:27.034Z,7.30
2023-02-17T17:29:30.088Z,7.30
2023-02-17T17:32:33.638Z,7.50
2023-02-17T17:35:38.045Z,7.70
2023-02-17T17:38:41.235Z,7.70
2023-02-17T17:41:44.885Z,7.50
2023-02-17T17:44:50.972Z,7.40
2023-02-17T17:48:05.758Z,7.40
2023-02-17T17:51:13.424Z,7.90
2023-02-17T17:54:16.713Z,9.00
2023-02-17T17:57:20.575Z,9.70
2023-02-17T18:00:24.214Z,10.00
2023-02-17T18:03:28.004Z,10.00
2023-02-17T18:06:41.636Z,10.60
2023-02-17T18:09:45.513Z,11.00
2023-02-17T18:12:50.417Z,10.90
2023-02-17T18:15:54.504Z,11.30
2023-02-17T18:19:02.189Z,11.30
2023-02-17T18:22:06.361Z,11.60
2023-02-17T18:25:10.357Z,11.60
2023-02-17T18:28:13.996Z,11.70
2023-02-17T18:31:18.286Z,11.80
2023-02-17T18:34:21.599Z,12.00
2023-02-17T18:37:26.710Z,12.00
2023-02-17T18:40:32.012Z,11.80
2023-02-17T18:43:35.946Z,11.70
2023-02-17T18:46:42.534Z,11.60
2023-02-17T18:49:46.663Z,11.50
2023-02-17T18:52:50.174Z,11.60
2023-02-17T18:55:54.349Z,11.80
2023-02-17T18:58:58.824Z,11.70
2023-02-17T19:02:08.242Z,11.80
2023-02-17T19:05:14.017Z,11.80
2023-02-17T19:08:18.357Z,11.80
2023-02-17T19:11:23.182Z,11.80
2023-02-17T19:14:34.082Z,11.80
2023-02-17T19:17:38.295Z,11.80
2023-02-17T19:20:44.622Z,11.80
2023-02-17T19:23:51.084Z,11.80
2023-02-17T19:26:57.602Z,11.90
2023-02-17T19:30:01.440Z,11.80
2023-02-17T19:33:05.543Z,11.80
2023-02-17T19:36:27.641Z,11.70
2023-02-17T19:39:32.882Z,11.80
2023-02-17T19:42:37.152Z,11.80
2023-02-17T19:45:41.066Z,11.80
2023-02-17T19:48:44.262Z,11.60
2023-02-17T19:51:48.144Z,11.50
2023-02-17T19:54:53.625Z,11.40
2023-02-17T19:57:58.932Z,11.50
2023-02-17T20:01:12.292Z,11.30
2023-02-17T20:04:19.324Z,11.30
2023-02-17T20:07:23.448Z,11.30
2023-02-17T20:10:27.057Z,11.30
2023-02-17T20:13:34.753Z,11.40
2023-02-17T20:16:48.713Z,11.30
2023-02-17T20:19:54.863Z,11.30
2023-02-17T20:22:58.558Z,11.30
2023-02-17T20:26:08.186Z,11.20
2023-02-17T20:29:13.577Z,11.10
2023-02-17T20:32:20.250Z,10.90
2023-02-17T20:35:23.692Z,10.80
2023-02-17T20:38:27.295Z,10.90
2023-02-17T20:41:31.175Z,10.80
2023-02-17T20:44:35.568Z,10.80
2023-02-17T20:47:39.900Z,10.90
2023-02-17T20:50:45.281Z,10.80
2023-02-17T20:53:49.761Z,10.70
2023-02-17T20:56:53.312Z,10.70
2023-02-17T20:59:56.781Z,10.70
2023-02-17T21:03:02.490Z,10.50
2023-02-17T21:06:16.274Z,10.50
2023-02-17T21:09:21.051Z,10.40
2023-02-17T21:12:24.400Z,10.40
2023-02-17T21:15:28.693Z,10.30
2023-02-17T21:18:31.674Z,10.20
2023-02-17T21:21:34.890Z,10.10
2023-02-17T21:24:37.895Z,10.00
2023-02-17T21:27:40.822Z,10.10
2023-02-17T21:30:47.147Z,10.00
2023-02-17T21:33:50.322Z,9.90
2023-02-17T21:36:52.976Z,9.80
2023-02-17T21:39:56.859Z,9.80
2023-02-17T21:43:18.483Z,9.80
2023-02-17T21:46:22.041Z,9.80
2023-02-17T21:49:24.898Z,9.90
2023-02-17T21:52:30.170Z,9.90
2023-02-17T21:55:37.189Z,9.80
2023-02-17T21:58:40.050Z,9.80
2023-02-17T22:01:43.072Z,9.60
2023-02-17T22:04:45.940Z,9.60
2023-02-17T22:07:50.000Z,9.60
2023-02-17T22:10:52.536Z,9.50
2023-02-17T22:14:01.254Z,9.40
2023-02-17T22:17:03.927Z,9.40
2023-02-17T22:20:06.893Z,9.40
2023-02-17T22:23:09.573Z,9.40
2023-02-17T22:26:14.828Z,9.20
2023-02-17T22:29:17.138Z,9.20
2023-02-17T22:32:19.341Z,9.10
2023-02-17T22:35:22.098Z,9.10
2023-02-17T22:38:24.641Z,9.10
2023-02-17T22:41:27.554Z,9.00
2023-02-17T22:44:30.358Z,9.00
2023-02-17T22:47:32.555Z,8.80
2023-02-17T22:50:38.594Z,8.80
2023-02-17T22:53:41.377Z,8.90
2023-02-17T22:56:43.500Z,8.90
2023-02-17T22:59:45.612Z,8.80
2023-02-17T23:02:47.808Z,8.70
2023-02-17T23:05:49.908Z,8.60
2023-02-17T23:08:53.275Z,8.60
2023-02-17T23:11:57.563Z,8.70
2023-02-17T23:15:00.824Z,8.70
2023-02-17T23:18:03.047Z,8.60
2023-02-17T23:21:10.902Z,8.50
2023-02-17T23:24:14.397Z,8.40
2023-02-17T23:27:16.621Z,8.10
2023-02-17T23:30:22.069Z,8.00
2023-02-17T23:33:24.795Z,8.00
2023-02-17T23:36:27.132Z,8.00
2023-02-17T23:39:29.359Z,8.00
2023-02-17T23:42:31.971Z,8.10
2023-02-17T23:45:35.129Z,8.10
2023-02-17T23:48:38.653Z,8.20
2023-02-17T23:51:41.469Z,8.00
2023-02-17T23:54:44.510Z,8.00
2023-02-17T23:57:46.563Z,7.80
